Thursday, April 26, 2018, 5:43 AM EDT
Back to Local

KEEN, Keene, Dillant-hopkins Airport

Location: Keene, NH, United States Lat: 42.9
Local Time: 5:43 AM EDT ( 9:43 GMT) Lon: -72.267
Time Zone: US/Eastern Elev: 488 ft

Show me the last for .
Show Decoded

2018-04-26 05:18 METAR KEEN 260918Z AUTO 36003KT 2 1/2SM BR OVC005 11/11 A2957 RMK AO2 RAE17 CIG
                 003V007 P0000 =
2018-04-26 04:56 METAR KEEN 260856Z AUTO 35003KT 4SM -RA BR BKN005 OVC009 11/11 A2957 RMK AO2
                 RAB09 SLP032 P0001 60005 T01110106 58012 =
2018-04-26 03:56 METAR KEEN 260756Z AUTO 00000KT 10SM OVC009 11/11 A2958 RMK AO2 RAE55 CIG
                 004V010 SLP037 P0003 T01110106 =
2018-04-26 03:22 METAR KEEN 260722Z AUTO 01003KT 3SM -RA BR OVC003 11/11 A2958 RMK AO2 P0002 =
2018-04-26 03:14 METAR KEEN 260714Z AUTO 03005KT 1 3/4SM -RA BR OVC003 11/11 A2958 RMK AO2 PRESFR
                 P0001 =
2018-04-26 02:56 METAR KEEN 260656Z AUTO 34003KT 2SM -RA BR OVC003 11/11 A2960 RMK AO2 RAB22
                 SLP044 P0001 T01110106 =
2018-04-26 02:44 METAR KEEN 260644Z AUTO 00000KT 1 3/4SM -RA BR OVC003 11/11 A2960 RMK AO2 RAB22
                 P0000 =
2018-04-26 02:17 METAR KEEN 260617Z AUTO 36003KT 1 3/4SM BR OVC005 11/11 A2961 RMK AO2 CIG
                 003V008 =
2018-04-26 01:56 METAR KEEN 260556Z AUTO 36003KT 7SM BKN003 OVC011 11/11 A2961 RMK AO2 RAE47
                 SLP046 P0001 60009 T01110106 10122 20111 56016 =
2018-04-26 01:33 METAR KEEN 260533Z AUTO 01003KT 5SM -RA BR SCT003 OVC009 11/11 A2961 RMK AO2 CIG
                 007V010 P0001 =
2018-04-26 00:56 METAR KEEN 260456Z AUTO 01003KT 10SM -RA BKN003 OVC011 12/11 A2963 RMK AO2
                 RAE06B40 SLP053 P0001 T01170106 401440078 =
2018-04-26 00:51 METAR KEEN 260451Z AUTO 00000KT 10SM -RA SCT003 OVC011 12/11 A2964 RMK AO2
                 RAE06B40 P0001 401440078 =
2018-04-25 23:14 METAR KEEN 260314Z AUTO 34003KT 5SM RA BR BKN013 OVC022 12/10 A2967 RMK AO2
                 RAB00 P0006 =
2018-04-25 22:56 METAR KEEN 260256Z AUTO 00000KT 10SM OVC015 12/11 A2968 RMK AO2 RAE02B34E48
                 SLP073 P0000 60000 T01170106 58017 =
2018-04-25 22:16 METAR KEEN 260216Z AUTO 00000KT 10SM OVC015 12/11 A2970 RMK AO2 RAE02 P0000 =
2018-04-25 21:56 METAR KEEN 260156Z AUTO 00000KT 10SM -RA OVC013 12/11 A2971 RMK AO2 RAB29 SLP083
                 P0000 T01170111 =
2018-04-25 21:42 METAR KEEN 260142Z AUTO 00000KT 10SM -RA OVC013 12/11 A2972 RMK AO2 RAB29 P0000
                 =
2018-04-25 20:56 METAR KEEN 260056Z AUTO 00000KT 10SM OVC017 12/11 A2973 RMK AO2 SLP089 T01220106
                 =
2018-04-25 19:56 METAR KEEN 252356Z AUTO 04003KT 10SM OVC017 13/11 A2973 RMK AO2 SLP091 60001
                 T01280106 10144 20128 56021 =
2018-04-25 18:56 METAR KEEN 252256Z AUTO 03004KT 10SM OVC015 13/12 A2974 RMK AO2 SLP093 T01330117
                 =
2018-04-25 18:39 METAR KEEN 252239Z AUTO 03004KT 10SM OVC015 13/12 A2975 RMK AO2 =
2018-04-25 18:14 METAR KEEN 252214Z AUTO 02004KT 10SM OVC013 13/12 A2976 RMK AO2 =
2018-04-25 17:56 METAR KEEN 252156Z AUTO 01004KT 6SM BR OVC015 14/12 A2977 RMK AO2 RAE41 SLP101
                 P0000 T01390122 =
2018-04-25 16:56 METAR KEEN 252056Z AUTO VRB03KT 10SM -RA OVC017 14/12 A2980 RMK AO2 SLP111 P0001
                 60001 T01440122 56032 =
2018-04-25 15:56 METAR KEEN 251956Z AUTO VRB03KT 10SM -RA OVC017 14/12 A2982 RMK AO2 SLP120 P0000
                 T01440122 =
2018-04-25 14:56 METAR KEEN 251856Z AUTO VRB03KT 6SM -RA BR OVC015 14/12 A2986 RMK AO2 RAB07
                 SLP131 P0000 T01390122 =
2018-04-25 13:56 METAR KEEN 251756Z AUTO VRB04KT 10SM OVC015 14/11 A2989 RMK AO2 SLP143 60011
                 T01440111 10144 20083 58040 =
2018-04-25 13:30 METAR KEEN 251730Z AUTO VRB04KT 10SM OVC015 14/12 A2991 RMK AO2 =
2018-04-25 12:56 METAR KEEN 251656Z AUTO 00000KT 10SM OVC013 13/11 A2993 RMK AO2 RAB03E40 SLP156
                 P0000 T01330111 =
2018-04-25 11:56 METAR KEEN 251556Z AUTO 00000KT 5SM BR OVC013 11/10 A2998 RMK AO2 RAE04B27E43
                 SLP173 P0001 T01110100 =
2018-04-25 10:56 METAR KEEN 251456Z AUTO VRB03KT 10SM -RA OVC013 11/09 A3001 RMK AO2 SLP185 P0000
                 60010 T01060094 55018 =
2018-04-25 10:52 METAR KEEN 251452Z AUTO 00000KT 10SM -RA OVC013 11/09 A3001 RMK AO2 P0000 =
2018-04-25 10:19 METAR KEEN 251419Z AUTO 00000KT 6SM -RA BR FEW010 BKN017 OVC022 11/09 A3002 RMK
                 AO2 P0000 =
2018-04-25 10:08 METAR KEEN 251408Z AUTO VRB03KT 4SM -RA BR BKN010 OVC024 11/09 A3003 RMK AO2 CIG
                 004V013 P0000 =
2018-04-25 09:56 METAR KEEN 251356Z AUTO 00000KT 6SM -RA BR FEW008 BKN021 OVC034 10/09 A3003 RMK
                 AO2 SLP191 P0004 T01000094 =
2018-04-25 09:09 METAR KEEN 251309Z AUTO 00000KT 4SM RA BR FEW011 BKN025 OVC041 09/08 A3006 RMK
                 AO2 P0002 =
2018-04-25 08:56 METAR KEEN 251256Z AUTO 00000KT 4SM RA BR FEW013 SCT028 OVC041 09/08 A3007 RMK
                 AO2 SLP203 P0006 T00890083 =
2018-04-25 08:31 METAR KEEN 251231Z AUTO 01005KT 8SM RA SCT004 BKN028 OVC039 08/08 A3008 RMK AO2
                 P0003 =
2018-04-25 08:21 METAR KEEN 251221Z AUTO 36004KT 9SM -RA BKN004 BKN015 OVC033 08/08 A3009 RMK AO2
                 CIG 003V010 P0002 =
2018-04-25 08:10 METAR KEEN 251210Z AUTO 35004KT 8SM -RA SCT006 BKN015 OVC047 08/08 A3009 RMK AO2
                 P0001 =
2018-04-25 07:56 METAR KEEN 251156Z AUTO 36004KT 7SM -RA SCT014 BKN025 OVC080 08/08 A3010 RMK AO2
                 SLP214 P0004 60010 70010 T00830078 10106 20078 58008 =
2018-04-25 07:44 METAR KEEN 251144Z AUTO 35003KT 8SM -RA FEW010 BKN044 OVC080 08/07 A3011 RMK AO2
                 P0003 =
2018-04-25 07:23 METAR KEEN 251123Z AUTO 35004KT 8SM -RA BKN026 BKN045 OVC060 08/07 A3011 RMK AO2
                 P0002 =
2018-04-25 06:56 METAR KEEN 251056Z AUTO 33003KT 10SM -RA OVC065 08/07 A3012 RMK AO2 SLP220 P0005
                 T00780067 =
2018-04-25 05:56 METAR KEEN 250956Z AUTO 00000KT 10SM RA FEW021 BKN050 OVC080 08/06 A3012 RMK AO2
                 SLP219 P0001 T00780061 =

Support USWX by starting your Amazon purchase here.